sensor_id;sensor_type;location;lat;lon;timestamp;P1;durP1;ratioP1;P2;durP2;ratioP2
16667;SDS011;8447;52.630;4.734;2023-02-18T00:02:13;11.83;;;2.10;;
16667;SDS011;8447;52.630;4.734;2023-02-18T00:04:41;8.20;;;2.00;;
16667;SDS011;8447;52.630;4.734;2023-02-18T00:07:07;12.00;;;2.93;;
16667;SDS011;8447;52.630;4.734;2023-02-18T00:09:34;11.23;;;2.40;;
16667;SDS011;8447;52.630;4.734;2023-02-18T00:12:00;8.23;;;2.47;;
16667;SDS011;8447;52.630;4.734;2023-02-18T00:14:26;10.67;;;2.70;;
16667;SDS011;8447;52.630;4.734;2023-02-18T00:16:53;11.90;;;2.47;;
16667;SDS011;8447;52.630;4.734;2023-02-18T00:19:19;10.47;;;2.27;;
16667;SDS011;8447;52.630;4.734;2023-02-18T00:21:47;12.70;;;2.73;;
16667;SDS011;8447;52.630;4.734;2023-02-18T00:24:14;8.50;;;3.10;;
16667;SDS011;8447;52.630;4.734;2023-02-18T00:26:40;6.53;;;2.17;;
16667;SDS011;8447;52.630;4.734;2023-02-18T00:29:06;9.83;;;2.60;;
16667;SDS011;8447;52.630;4.734;2023-02-18T00:31:33;9.73;;;2.83;;
16667;SDS011;8447;52.630;4.734;2023-02-18T00:34:00;9.83;;;2.77;;
16667;SDS011;8447;52.630;4.734;2023-02-18T00:36:27;11.73;;;2.53;;
16667;SDS011;8447;52.630;4.734;2023-02-18T00:38:55;9.23;;;2.90;;
16667;SDS011;8447;52.630;4.734;2023-02-18T00:41:23;10.93;;;2.63;;
16667;SDS011;8447;52.630;4.734;2023-02-18T00:43:49;7.60;;;2.53;;
16667;SDS011;8447;52.630;4.734;2023-02-18T00:46:16;14.37;;;2.67;;
16667;SDS011;8447;52.630;4.734;2023-02-18T00:48:42;10.87;;;2.67;;
16667;SDS011;8447;52.630;4.734;2023-02-18T00:51:09;10.57;;;2.77;;
16667;SDS011;8447;52.630;4.734;2023-02-18T00:53:35;7.77;;;2.60;;
16667;SDS011;8447;52.630;4.734;2023-02-18T00:56:04;14.30;;;2.47;;
16667;SDS011;8447;52.630;4.734;2023-02-18T00:58:30;15.60;;;2.80;;
16667;SDS011;8447;52.630;4.734;2023-02-18T01:00:57;10.20;;;2.97;;
16667;SDS011;8447;52.630;4.734;2023-02-18T01:03:23;9.17;;;2.20;;
16667;SDS011;8447;52.630;4.734;2023-02-18T01:05:50;10.20;;;3.17;;
16667;SDS011;8447;52.630;4.734;2023-02-18T01:08:17;13.27;;;2.77;;
16667;SDS011;8447;52.630;4.734;2023-02-18T01:10:44;9.23;;;3.13;;
16667;SDS011;8447;52.630;4.734;2023-02-18T01:13:13;8.30;;;2.97;;
16667;SDS011;8447;52.630;4.734;2023-02-18T01:15:40;11.17;;;2.43;;
16667;SDS011;8447;52.630;4.734;2023-02-18T01:18:07;13.43;;;2.93;;
16667;SDS011;8447;52.630;4.734;2023-02-18T01:20:33;12.43;;;2.40;;
16667;SDS011;8447;52.630;4.734;2023-02-18T01:22:59;13.77;;;3.23;;
16667;SDS011;8447;52.630;4.734;2023-02-18T01:25:26;13.40;;;3.80;;
16667;SDS011;8447;52.630;4.734;2023-02-18T01:27:52;10.50;;;3.50;;
16667;SDS011;8447;52.630;4.734;2023-02-18T01:30:21;8.87;;;3.20;;
16667;SDS011;8447;52.630;4.734;2023-02-18T01:32:48;6.17;;;2.90;;
16667;SDS011;8447;52.630;4.734;2023-02-18T01:35:16;13.53;;;3.73;;
16667;SDS011;8447;52.630;4.734;2023-02-18T01:37:43;16.00;;;3.87;;
16667;SDS011;8447;52.630;4.734;2023-02-18T01:40:10;9.57;;;3.23;;
16667;SDS011;8447;52.630;4.734;2023-02-18T01:42:37;9.80;;;3.30;;
16667;SDS011;8447;52.630;4.734;2023-02-18T01:47:49;15.73;;;4.37;;
16667;SDS011;8447;52.630;4.734;2023-02-18T01:50:16;11.53;;;3.40;;
16667;SDS011;8447;52.630;4.734;2023-02-18T01:52:42;16.27;;;3.67;;
16667;SDS011;8447;52.630;4.734;2023-02-18T01:55:08;8.37;;;4.10;;
16667;SDS011;8447;52.630;4.734;2023-02-18T01:57:35;16.63;;;4.33;;
16667;SDS011;8447;52.630;4.734;2023-02-18T02:00:03;13.57;;;4.20;;
16667;SDS011;8447;52.630;4.734;2023-02-18T02:02:30;14.20;;;4.30;;
16667;SDS011;8447;52.630;4.734;2023-02-18T02:04:58;18.00;;;4.50;;
16667;SDS011;8447;52.630;4.734;2023-02-18T02:07:26;16.77;;;4.37;;
16667;SDS011;8447;52.630;4.734;2023-02-18T02:09:54;17.47;;;4.43;;
16667;SDS011;8447;52.630;4.734;2023-02-18T02:12:28;14.23;;;4.27;;
16667;SDS011;8447;52.630;4.734;2023-02-18T02:17:44;19.10;;;4.10;;
16667;SDS011;8447;52.630;4.734;2023-02-18T02:25:57;17.40;;;5.43;;
16667;SDS011;8447;52.630;4.734;2023-02-18T02:31:19;19.43;;;6.40;;
16667;SDS011;8447;52.630;4.734;2023-02-18T02:34:02;16.90;;;6.17;;
16667;SDS011;8447;52.630;4.734;2023-02-18T02:36:35;17.37;;;6.77;;
16667;SDS011;8447;52.630;4.734;2023-02-18T02:39:06;16.63;;;6.70;;
16667;SDS011;8447;52.630;4.734;2023-02-18T02:41:38;15.53;;;6.70;;
16667;SDS011;8447;52.630;4.734;2023-02-18T02:44:10;21.57;;;7.83;;
16667;SDS011;8447;52.630;4.734;2023-02-18T02:46:39;22.57;;;8.27;;
16667;SDS011;8447;52.630;4.734;2023-02-18T02:49:07;24.30;;;8.20;;
16667;SDS011;8447;52.630;4.734;2023-02-18T02:51:40;21.33;;;9.37;;
16667;SDS011;8447;52.630;4.734;2023-02-18T02:54:09;23.87;;;8.93;;
16667;SDS011;8447;52.630;4.734;2023-02-18T02:56:36;23.63;;;11.23;;
16667;SDS011;8447;52.630;4.734;2023-02-18T02:59:03;20.87;;;10.43;;
16667;SDS011;8447;52.630;4.734;2023-02-18T03:01:34;27.97;;;10.53;;
16667;SDS011;8447;52.630;4.734;2023-02-18T03:04:21;22.20;;;10.37;;
16667;SDS011;8447;52.630;4.734;2023-02-18T03:06:59;17.50;;;8.50;;
16667;SDS011;8447;52.630;4.734;2023-02-18T03:09:31;26.40;;;10.93;;
16667;SDS011;8447;52.630;4.734;2023-02-18T03:12:00;21.37;;;9.60;;
16667;SDS011;8447;52.630;4.734;2023-02-18T03:14:28;23.17;;;9.97;;
16667;SDS011;8447;52.630;4.734;2023-02-18T03:16:57;28.33;;;9.77;;
16667;SDS011;8447;52.630;4.734;2023-02-18T03:19:26;23.53;;;9.73;;
16667;SDS011;8447;52.630;4.734;2023-02-18T03:21:55;21.67;;;9.17;;
16667;SDS011;8447;52.630;4.734;2023-02-18T03:24:24;20.47;;;10.40;;
16667;SDS011;8447;52.630;4.734;2023-02-18T03:26:53;28.57;;;10.47;;
16667;SDS011;8447;52.630;4.734;2023-02-18T03:29:21;18.83;;;9.27;;
16667;SDS011;8447;52.630;4.734;2023-02-18T03:31:48;14.83;;;7.37;;
16667;SDS011;8447;52.630;4.734;2023-02-18T03:34:18;19.87;;;9.00;;
16667;SDS011;8447;52.630;4.734;2023-02-18T03:36:45;17.00;;;8.40;;
16667;SDS011;8447;52.630;4.734;2023-02-18T03:39:13;19.83;;;9.70;;
16667;SDS011;8447;52.630;4.734;2023-02-18T03:41:41;21.03;;;9.10;;
16667;SDS011;8447;52.630;4.734;2023-02-18T03:44:08;16.30;;;8.80;;
16667;SDS011;8447;52.630;4.734;2023-02-18T03:46:35;17.83;;;7.10;;
16667;SDS011;8447;52.630;4.734;2023-02-18T03:49:02;16.60;;;7.93;;
16667;SDS011;8447;52.630;4.734;2023-02-18T03:51:28;15.90;;;8.10;;
16667;SDS011;8447;52.630;4.734;2023-02-18T03:53:55;17.63;;;8.67;;
16667;SDS011;8447;52.630;4.734;2023-02-18T03:56:21;14.50;;;7.27;;
16667;SDS011;8447;52.630;4.734;2023-02-18T03:58:49;15.43;;;6.77;;
16667;SDS011;8447;52.630;4.734;2023-02-18T04:01:15;16.33;;;6.63;;
16667;SDS011;8447;52.630;4.734;2023-02-18T04:03:41;13.30;;;7.70;;
16667;SDS011;8447;52.630;4.734;2023-02-18T04:06:08;12.93;;;7.10;;
16667;SDS011;8447;52.630;4.734;2023-02-18T04:08:34;10.73;;;6.87;;
16667;SDS011;8447;52.630;4.734;2023-02-18T04:11:01;11.07;;;6.13;;
16667;SDS011;8447;52.630;4.734;2023-02-18T04:13:27;9.70;;;6.17;;
16667;SDS011;8447;52.630;4.734;2023-02-18T04:15:55;8.73;;;4.50;;
16667;SDS011;8447;52.630;4.734;2023-02-18T04:18:22;7.33;;;4.60;;
16667;SDS011;8447;52.630;4.734;2023-02-18T04:20:48;6.23;;;4.07;;
16667;SDS011;8447;52.630;4.734;2023-02-18T04:23:15;6.37;;;4.60;;
16667;SDS011;8447;52.630;4.734;2023-02-18T04:25:41;6.47;;;4.33;;
16667;SDS011;8447;52.630;4.734;2023-02-18T04:28:08;6.27;;;4.10;;
16667;SDS011;8447;52.630;4.734;2023-02-18T04:30:37;10.30;;;6.20;;
16667;SDS011;8447;52.630;4.734;2023-02-18T04:33:05;5.17;;;2.97;;
16667;SDS011;8447;52.630;4.734;2023-02-18T04:35:31;8.83;;;5.00;;
16667;SDS011;8447;52.630;4.734;2023-02-18T04:37:58;11.73;;;6.17;;
16667;SDS011;8447;52.630;4.734;2023-02-18T04:40:24;14.00;;;6.67;;
16667;SDS011;8447;52.630;4.734;2023-02-18T04:42:53;12.23;;;6.17;;
16667;SDS011;8447;52.630;4.734;2023-02-18T04:45:20;13.43;;;6.80;;
16667;SDS011;8447;52.630;4.734;2023-02-18T04:47:46;9.53;;;5.53;;
16667;SDS011;8447;52.630;4.734;2023-02-18T04:50:14;12.40;;;5.27;;
16667;SDS011;8447;52.630;4.734;2023-02-18T04:52:40;9.57;;;5.40;;
16667;SDS011;8447;52.630;4.734;2023-02-18T04:55:07;17.73;;;6.27;;
16667;SDS011;8447;52.630;4.734;2023-02-18T04:57:33;13.17;;;5.70;;
16667;SDS011;8447;52.630;4.734;2023-02-18T04:59:59;16.10;;;5.77;;
16667;SDS011;8447;52.630;4.734;2023-02-18T05:02:27;11.27;;;5.50;;
16667;SDS011;8447;52.630;4.734;2023-02-18T05:04:54;14.07;;;5.10;;
16667;SDS011;8447;52.630;4.734;2023-02-18T05:07:22;10.83;;;5.13;;
16667;SDS011;8447;52.630;4.734;2023-02-18T05:09:48;13.13;;;5.13;;
16667;SDS011;8447;52.630;4.734;2023-02-18T05:12:14;8.97;;;4.43;;
16667;SDS011;8447;52.630;4.734;2023-02-18T05:14:41;10.67;;;4.60;;
16667;SDS011;8447;52.630;4.734;2023-02-18T05:17:07;7.60;;;3.80;;
16667;SDS011;8447;52.630;4.734;2023-02-18T05:19:34;8.97;;;4.37;;
16667;SDS011;8447;52.630;4.734;2023-02-18T05:22:00;16.53;;;4.43;;
16667;SDS011;8447;52.630;4.734;2023-02-18T05:24:28;11.60;;;4.77;;
16667;SDS011;8447;52.630;4.734;2023-02-18T05:26:54;9.87;;;4.47;;
16667;SDS011;8447;52.630;4.734;2023-02-18T05:29:20;14.13;;;4.30;;
16667;SDS011;8447;52.630;4.734;2023-02-18T05:31:47;6.93;;;2.70;;
16667;SDS011;8447;52.630;4.734;2023-02-18T05:34:13;11.40;;;4.10;;
16667;SDS011;8447;52.630;4.734;2023-02-18T05:36:39;12.87;;;3.83;;
16667;SDS011;8447;52.630;4.734;2023-02-18T05:39:06;9.23;;;3.17;;
16667;SDS011;8447;52.630;4.734;2023-02-18T05:41:34;5.80;;;2.23;;
16667;SDS011;8447;52.630;4.734;2023-02-18T05:44:00;10.33;;;3.60;;
16667;SDS011;8447;52.630;4.734;2023-02-18T05:46:44;14.13;;;4.17;;
16667;SDS011;8447;52.630;4.734;2023-02-18T05:49:10;13.13;;;3.77;;
16667;SDS011;8447;52.630;4.734;2023-02-18T05:51:37;10.67;;;3.50;;
16667;SDS011;8447;52.630;4.734;2023-02-18T05:54:03;11.67;;;3.93;;
16667;SDS011;8447;52.630;4.734;2023-02-18T05:56:30;12.93;;;3.20;;
16667;SDS011;8447;52.630;4.734;2023-02-18T05:58:57;11.83;;;3.50;;
16667;SDS011;8447;52.630;4.734;2023-02-18T06:01:24;7.93;;;3.60;;
16667;SDS011;8447;52.630;4.734;2023-02-18T06:03:50;10.00;;;3.20;;
16667;SDS011;8447;52.630;4.734;2023-02-18T06:06:16;11.53;;;3.33;;
16667;SDS011;8447;52.630;4.734;2023-02-18T06:08:43;5.03;;;1.93;;
16667;SDS011;8447;52.630;4.734;2023-02-18T06:11:09;12.70;;;3.13;;
16667;SDS011;8447;52.630;4.734;2023-02-18T06:13:36;11.10;;;3.30;;
16667;SDS011;8447;52.630;4.734;2023-02-18T06:16:04;11.50;;;3.63;;
16667;SDS011;8447;52.630;4.734;2023-02-18T06:18:30;12.63;;;2.63;;
16667;SDS011;8447;52.630;4.734;2023-02-18T06:20:56;9.50;;;1.73;;
16667;SDS011;8447;52.630;4.734;2023-02-18T06:23:23;10.00;;;2.40;;
16667;SDS011;8447;52.630;4.734;2023-02-18T06:25:49;7.33;;;2.93;;
16667;SDS011;8447;52.630;4.734;2023-02-18T06:28:15;13.07;;;3.50;;
16667;SDS011;8447;52.630;4.734;2023-02-18T06:30:42;12.93;;;3.23;;
16667;SDS011;8447;52.630;4.734;2023-02-18T06:33:10;11.57;;;2.70;;
16667;SDS011;8447;52.630;4.734;2023-02-18T06:35:36;12.27;;;2.87;;
16667;SDS011;8447;52.630;4.734;2023-02-18T06:38:03;10.33;;;3.13;;
16667;SDS011;8447;52.630;4.734;2023-02-18T06:40:29;10.33;;;2.43;;
16667;SDS011;8447;52.630;4.734;2023-02-18T06:42:56;12.37;;;2.87;;
16667;SDS011;8447;52.630;4.734;2023-02-18T06:45:22;10.43;;;2.93;;
16667;SDS011;8447;52.630;4.734;2023-02-18T06:47:48;12.87;;;3.40;;
16667;SDS011;8447;52.630;4.734;2023-02-18T06:50:16;9.07;;;3.40;;
16667;SDS011;8447;52.630;4.734;2023-02-18T06:52:43;11.63;;;3.37;;
16667;SDS011;8447;52.630;4.734;2023-02-18T06:55:10;11.33;;;2.53;;
16667;SDS011;8447;52.630;4.734;2023-02-18T06:57:36;7.27;;;3.10;;
16667;SDS011;8447;52.630;4.734;2023-02-18T07:00:03;11.47;;;3.57;;
16667;SDS011;8447;52.630;4.734;2023-02-18T07:02:29;11.43;;;3.13;;
16667;SDS011;8447;52.630;4.734;2023-02-18T07:04:56;14.27;;;3.23;;
16667;SDS011;8447;52.630;4.734;2023-02-18T07:07:23;9.17;;;3.03;;
16667;SDS011;8447;52.630;4.734;2023-02-18T07:09:50;10.73;;;3.90;;
16667;SDS011;8447;52.630;4.734;2023-02-18T07:12:16;11.10;;;3.73;;
16667;SDS011;8447;52.630;4.734;2023-02-18T07:14:42;8.60;;;3.30;;
16667;SDS011;8447;52.630;4.734;2023-02-18T07:17:09;12.73;;;3.47;;
16667;SDS011;8447;52.630;4.734;2023-02-18T07:19:35;11.70;;;3.40;;
16667;SDS011;8447;52.630;4.734;2023-02-18T07:22:02;10.40;;;3.13;;
16667;SDS011;8447;52.630;4.734;2023-02-18T07:24:30;7.40;;;2.50;;
16667;SDS011;8447;52.630;4.734;2023-02-18T07:26:56;11.27;;;3.07;;
16667;SDS011;8447;52.630;4.734;2023-02-18T07:29:22;10.80;;;3.40;;
16667;SDS011;8447;52.630;4.734;2023-02-18T07:31:50;16.70;;;3.23;;
16667;SDS011;8447;52.630;4.734;2023-02-18T07:34:16;12.33;;;3.93;;
16667;SDS011;8447;52.630;4.734;2023-02-18T07:36:43;10.77;;;3.47;;
16667;SDS011;8447;52.630;4.734;2023-02-18T07:39:10;12.43;;;3.87;;
16667;SDS011;8447;52.630;4.734;2023-02-18T07:41:37;13.57;;;3.23;;
16667;SDS011;8447;52.630;4.734;2023-02-18T07:44:04;15.17;;;3.30;;
16667;SDS011;8447;52.630;4.734;2023-02-18T07:46:30;8.33;;;2.70;;
16667;SDS011;8447;52.630;4.734;2023-02-18T07:48:57;10.70;;;3.27;;
16667;SDS011;8447;52.630;4.734;2023-02-18T07:51:23;10.30;;;3.00;;
16667;SDS011;8447;52.630;4.734;2023-02-18T07:53:50;13.00;;;3.07;;
16667;SDS011;8447;52.630;4.734;2023-02-18T07:56:16;11.07;;;2.60;;
16667;SDS011;8447;52.630;4.734;2023-02-18T07:58:44;9.87;;;3.20;;
16667;SDS011;8447;52.630;4.734;2023-02-18T08:01:11;13.33;;;2.90;;
16667;SDS011;8447;52.630;4.734;2023-02-18T08:03:39;10.80;;;2.87;;
16667;SDS011;8447;52.630;4.734;2023-02-18T08:06:06;10.37;;;2.03;;
16667;SDS011;8447;52.630;4.734;2023-02-18T08:08:32;11.53;;;2.60;;
16667;SDS011;8447;52.630;4.734;2023-02-18T08:10:59;8.93;;;1.70;;
16667;SDS011;8447;52.630;4.734;2023-02-18T08:13:27;13.20;;;2.30;;
16667;SDS011;8447;52.630;4.734;2023-02-18T08:15:54;7.43;;;2.23;;
16667;SDS011;8447;52.630;4.734;2023-02-18T08:18:21;8.00;;;1.80;;
16667;SDS011;8447;52.630;4.734;2023-02-18T08:20:48;11.20;;;1.87;;
16667;SDS011;8447;52.630;4.734;2023-02-18T08:23:17;8.00;;;2.03;;
16667;SDS011;8447;52.630;4.734;2023-02-18T08:25:44;9.43;;;1.73;;
16667;SDS011;8447;52.630;4.734;2023-02-18T08:28:10;10.60;;;1.87;;
16667;SDS011;8447;52.630;4.734;2023-02-18T08:30:36;10.07;;;1.67;;
16667;SDS011;8447;52.630;4.734;2023-02-18T08:33:04;9.23;;;2.00;;
16667;SDS011;8447;52.630;4.734;2023-02-18T08:35:30;8.47;;;2.00;;
16667;SDS011;8447;52.630;4.734;2023-02-18T08:37:57;6.43;;;1.73;;
16667;SDS011;8447;52.630;4.734;2023-02-18T08:40:23;14.67;;;2.50;;
16667;SDS011;8447;52.630;4.734;2023-02-18T08:42:50;12.03;;;2.20;;
16667;SDS011;8447;52.630;4.734;2023-02-18T08:45:16;12.87;;;1.70;;
16667;SDS011;8447;52.630;4.734;2023-02-18T08:47:42;13.17;;;1.77;;
16667;SDS011;8447;52.630;4.734;2023-02-18T08:50:10;8.47;;;2.57;;
16667;SDS011;8447;52.630;4.734;2023-02-18T08:52:37;7.83;;;1.77;;
16667;SDS011;8447;52.630;4.734;2023-02-18T08:55:03;9.03;;;2.20;;
16667;SDS011;8447;52.630;4.734;2023-02-18T08:57:30;16.40;;;2.53;;
16667;SDS011;8447;52.630;4.734;2023-02-18T08:59:56;10.37;;;2.20;;
16667;SDS011;8447;52.630;4.734;2023-02-18T09:02:23;10.70;;;1.90;;
16667;SDS011;8447;52.630;4.734;2023-02-18T09:04:49;13.53;;;1.73;;
16667;SDS011;8447;52.630;4.734;2023-02-18T09:07:17;9.67;;;1.93;;
16667;SDS011;8447;52.630;4.734;2023-02-18T09:09:43;11.00;;;1.97;;
16667;SDS011;8447;52.630;4.734;2023-02-18T09:12:10;11.40;;;1.87;;
16667;SDS011;8447;52.630;4.734;2023-02-18T09:14:36;12.53;;;2.03;;
16667;SDS011;8447;52.630;4.734;2023-02-18T09:17:02;11.07;;;2.17;;
16667;SDS011;8447;52.630;4.734;2023-02-18T09:19:29;13.47;;;2.33;;
16667;SDS011;8447;52.630;4.734;2023-02-18T09:21:55;13.13;;;2.60;;
16667;SDS011;8447;52.630;4.734;2023-02-18T09:24:23;12.23;;;2.13;;
16667;SDS011;8447;52.630;4.734;2023-02-18T09:26:49;15.27;;;2.80;;
16667;SDS011;8447;52.630;4.734;2023-02-18T09:29:16;10.23;;;1.80;;
16667;SDS011;8447;52.630;4.734;2023-02-18T09:31:44;9.30;;;2.17;;
16667;SDS011;8447;52.630;4.734;2023-02-18T09:34:10;12.13;;;2.03;;
16667;SDS011;8447;52.630;4.734;2023-02-18T09:36:37;16.97;;;2.07;;
16667;SDS011;8447;52.630;4.734;2023-02-18T09:39:04;14.90;;;2.40;;
16667;SDS011;8447;52.630;4.734;2023-02-18T09:41:33;13.40;;;2.60;;
16667;SDS011;8447;52.630;4.734;2023-02-18T09:44:03;8.03;;;1.90;;
16667;SDS011;8447;52.630;4.734;2023-02-18T09:46:31;10.27;;;2.50;;
16667;SDS011;8447;52.630;4.734;2023-02-18T09:49:00;14.07;;;2.83;;
16667;SDS011;8447;52.630;4.734;2023-02-18T09:51:27;12.97;;;2.43;;
16667;SDS011;8447;52.630;4.734;2023-02-18T09:53:53;15.30;;;2.40;;
16667;SDS011;8447;52.630;4.734;2023-02-18T09:56:22;13.27;;;2.20;;
16667;SDS011;8447;52.630;4.734;2023-02-18T09:58:49;13.47;;;2.17;;
16667;SDS011;8447;52.630;4.734;2023-02-18T10:01:19;15.07;;;2.10;;
16667;SDS011;8447;52.630;4.734;2023-02-18T10:03:46;19.37;;;2.60;;
16667;SDS011;8447;52.630;4.734;2023-02-18T10:06:15;17.10;;;3.73;;
16667;SDS011;8447;52.630;4.734;2023-02-18T10:08:42;11.77;;;2.27;;
16667;SDS011;8447;52.630;4.734;2023-02-18T10:11:09;17.20;;;2.67;;
16667;SDS011;8447;52.630;4.734;2023-02-18T10:13:37;11.83;;;2.17;;
16667;SDS011;8447;52.630;4.734;2023-02-18T10:16:05;16.80;;;2.90;;
16667;SDS011;8447;52.630;4.734;2023-02-18T10:18:34;13.10;;;2.43;;
16667;SDS011;8447;52.630;4.734;2023-02-18T10:21:04;11.97;;;2.67;;
16667;SDS011;8447;52.630;4.734;2023-02-18T10:23:31;15.43;;;2.77;;
16667;SDS011;8447;52.630;4.734;2023-02-18T10:25:58;11.33;;;2.20;;
16667;SDS011;8447;52.630;4.734;2023-02-18T10:28:27;10.07;;;2.20;;
16667;SDS011;8447;52.630;4.734;2023-02-18T10:30:56;15.03;;;2.87;;
16667;SDS011;8447;52.630;4.734;2023-02-18T10:33:31;14.80;;;2.53;;
16667;SDS011;8447;52.630;4.734;2023-02-18T10:36:06;13.17;;;2.60;;
16667;SDS011;8447;52.630;4.734;2023-02-18T10:38:37;18.07;;;2.53;;
16667;SDS011;8447;52.630;4.734;2023-02-18T10:41:07;10.60;;;2.27;;
16667;SDS011;8447;52.630;4.734;2023-02-18T10:43:35;13.60;;;2.57;;
16667;SDS011;8447;52.630;4.734;2023-02-18T10:46:06;10.73;;;2.17;;
16667;SDS011;8447;52.630;4.734;2023-02-18T10:48:46;13.03;;;2.93;;
16667;SDS011;8447;52.630;4.734;2023-02-18T10:51:16;17.70;;;2.80;;
16667;SDS011;8447;52.630;4.734;2023-02-18T10:53:44;10.20;;;2.17;;
16667;SDS011;8447;52.630;4.734;2023-02-18T10:56:13;15.33;;;2.33;;
16667;SDS011;8447;52.630;4.734;2023-02-18T10:58:59;14.00;;;2.17;;
16667;SDS011;8447;52.630;4.734;2023-02-18T11:01:26;18.63;;;2.33;;
16667;SDS011;8447;52.630;4.734;2023-02-18T11:04:04;15.53;;;3.20;;
16667;SDS011;8447;52.630;4.734;2023-02-18T11:06:32;10.70;;;2.33;;
16667;SDS011;8447;52.630;4.734;2023-02-18T11:09:03;9.47;;;2.70;;
16667;SDS011;8447;52.630;4.734;2023-02-18T11:11:30;13.90;;;2.87;;
16667;SDS011;8447;52.630;4.734;2023-02-18T11:13:58;12.70;;;3.17;;
16667;SDS011;8447;52.630;4.734;2023-02-18T11:16:34;11.23;;;2.27;;
16667;SDS011;8447;52.630;4.734;2023-02-18T11:19:01;11.73;;;2.17;;
16667;SDS011;8447;52.630;4.734;2023-02-18T11:21:30;18.37;;;3.23;;
16667;SDS011;8447;52.630;4.734;2023-02-18T11:24:05;15.67;;;2.87;;
16667;SDS011;8447;52.630;4.734;2023-02-18T11:26:32;8.60;;;2.23;;
16667;SDS011;8447;52.630;4.734;2023-02-18T11:29:00;11.53;;;2.47;;
16667;SDS011;8447;52.630;4.734;2023-02-18T11:31:30;8.07;;;2.17;;
16667;SDS011;8447;52.630;4.734;2023-02-18T11:34:00;12.00;;;2.53;;
16667;SDS011;8447;52.630;4.734;2023-02-18T11:36:28;13.20;;;2.67;;
16667;SDS011;8447;52.630;4.734;2023-02-18T11:38:56;13.60;;;2.77;;
16667;SDS011;8447;52.630;4.734;2023-02-18T11:41:29;17.67;;;2.83;;
16667;SDS011;8447;52.630;4.734;2023-02-18T11:43:56;12.67;;;2.83;;
16667;SDS011;8447;52.630;4.734;2023-02-18T11:46:23;15.70;;;2.20;;
16667;SDS011;8447;52.630;4.734;2023-02-18T11:48:51;12.17;;;2.00;;
16667;SDS011;8447;52.630;4.734;2023-02-18T11:51:18;13.40;;;2.63;;
16667;SDS011;8447;52.630;4.734;2023-02-18T11:54:00;13.00;;;2.60;;
16667;SDS011;8447;52.630;4.734;2023-02-18T11:56:27;15.03;;;3.10;;
16667;SDS011;8447;52.630;4.734;2023-02-18T11:58:54;7.23;;;1.90;;
16667;SDS011;8447;52.630;4.734;2023-02-18T12:01:29;12.50;;;2.57;;
16667;SDS011;8447;52.630;4.734;2023-02-18T12:03:57;16.50;;;1.93;;
16667;SDS011;8447;52.630;4.734;2023-02-18T12:06:25;13.40;;;3.03;;
16667;SDS011;8447;52.630;4.734;2023-02-18T12:08:54;12.73;;;2.90;;
16667;SDS011;8447;52.630;4.734;2023-02-18T12:11:25;14.40;;;2.37;;
16667;SDS011;8447;52.630;4.734;2023-02-18T12:13:52;15.50;;;2.63;;
16667;SDS011;8447;52.630;4.734;2023-02-18T12:16:21;11.13;;;2.13;;
16667;SDS011;8447;52.630;4.734;2023-02-18T12:18:52;17.03;;;2.60;;
16667;SDS011;8447;52.630;4.734;2023-02-18T12:21:25;8.30;;;2.13;;
16667;SDS011;8447;52.630;4.734;2023-02-18T12:23:55;10.40;;;2.27;;
16667;SDS011;8447;52.630;4.734;2023-02-18T12:26:25;15.80;;;2.80;;
16667;SDS011;8447;52.630;4.734;2023-02-18T12:28:56;12.97;;;2.57;;
16667;SDS011;8447;52.630;4.734;2023-02-18T12:31:28;18.60;;;2.77;;
16667;SDS011;8447;52.630;4.734;2023-02-18T12:34:00;16.30;;;2.70;;
16667;SDS011;8447;52.630;4.734;2023-02-18T12:36:32;8.13;;;2.00;;
16667;SDS011;8447;52.630;4.734;2023-02-18T12:39:07;13.60;;;2.37;;
16667;SDS011;8447;52.630;4.734;2023-02-18T12:44:22;14.07;;;2.93;;
16667;SDS011;8447;52.630;4.734;2023-02-18T12:46:59;9.87;;;2.33;;
16667;SDS011;8447;52.630;4.734;2023-02-18T12:49:39;8.50;;;1.93;;
16667;SDS011;8447;52.630;4.734;2023-02-18T12:52:12;13.57;;;3.10;;
16667;SDS011;8447;52.630;4.734;2023-02-18T12:54:53;15.00;;;2.63;;
16667;SDS011;8447;52.630;4.734;2023-02-18T12:57:27;11.93;;;2.57;;
16667;SDS011;8447;52.630;4.734;2023-02-18T13:00:22;16.00;;;2.73;;
16667;SDS011;8447;52.630;4.734;2023-02-18T13:02:57;15.07;;;3.20;;
16667;SDS011;8447;52.630;4.734;2023-02-18T13:05:35;6.97;;;2.00;;
16667;SDS011;8447;52.630;4.734;2023-02-18T13:08:11;13.47;;;2.27;;
16667;SDS011;8447;52.630;4.734;2023-02-18T13:10:51;13.43;;;2.60;;
16667;SDS011;8447;52.630;4.734;2023-02-18T13:13:20;11.70;;;2.50;;
16667;SDS011;8447;52.630;4.734;2023-02-18T13:15:50;12.60;;;2.07;;
16667;SDS011;8447;52.630;4.734;2023-02-18T13:18:19;12.00;;;2.40;;
16667;SDS011;8447;52.630;4.734;2023-02-18T13:20:48;13.73;;;2.97;;
16667;SDS011;8447;52.630;4.734;2023-02-18T13:23:17;13.17;;;2.50;;
16667;SDS011;8447;52.630;4.734;2023-02-18T13:25:44;14.37;;;2.33;;
16667;SDS011;8447;52.630;4.734;2023-02-18T13:28:14;11.37;;;2.27;;
16667;SDS011;8447;52.630;4.734;2023-02-18T13:30:44;9.93;;;2.17;;
16667;SDS011;8447;52.630;4.734;2023-02-18T13:33:16;8.13;;;2.53;;
16667;SDS011;8447;52.630;4.734;2023-02-18T13:35:45;11.20;;;2.30;;
16667;SDS011;8447;52.630;4.734;2023-02-18T13:38:30;12.77;;;2.30;;
16667;SDS011;8447;52.630;4.734;2023-02-18T13:41:01;11.43;;;2.63;;
16667;SDS011;8447;52.630;4.734;2023-02-18T13:43:29;11.10;;;2.40;;
16667;SDS011;8447;52.630;4.734;2023-02-18T13:46:02;12.17;;;3.07;;
16667;SDS011;8447;52.630;4.734;2023-02-18T13:48:31;8.93;;;2.60;;
16667;SDS011;8447;52.630;4.734;2023-02-18T13:51:00;14.57;;;2.67;;
16667;SDS011;8447;52.630;4.734;2023-02-18T13:53:28;8.20;;;2.20;;
16667;SDS011;8447;52.630;4.734;2023-02-18T13:55:57;12.37;;;2.00;;
16667;SDS011;8447;52.630;4.734;2023-02-18T13:58:27;13.43;;;3.07;;
16667;SDS011;8447;52.630;4.734;2023-02-18T14:00:55;15.17;;;2.90;;
16667;SDS011;8447;52.630;4.734;2023-02-18T14:03:34;7.47;;;2.10;;
16667;SDS011;8447;52.630;4.734;2023-02-18T14:06:11;9.47;;;2.40;;
16667;SDS011;8447;52.630;4.734;2023-02-18T14:08:38;13.33;;;2.40;;
16667;SDS011;8447;52.630;4.734;2023-02-18T14:13:47;14.17;;;2.57;;
16667;SDS011;8447;52.630;4.734;2023-02-18T14:16:14;15.70;;;2.87;;
16667;SDS011;8447;52.630;4.734;2023-02-18T14:18:55;11.70;;;1.97;;
16667;SDS011;8447;52.630;4.734;2023-02-18T14:21:33;10.97;;;1.90;;
16667;SDS011;8447;52.630;4.734;2023-02-18T14:24:01;9.07;;;1.87;;
16667;SDS011;8447;52.630;4.734;2023-02-18T14:26:28;11.77;;;2.13;;
16667;SDS011;8447;52.630;4.734;2023-02-18T14:28:55;13.90;;;2.30;;
16667;SDS011;8447;52.630;4.734;2023-02-18T14:34:14;6.27;;;1.70;;
16667;SDS011;8447;52.630;4.734;2023-02-18T14:36:48;9.77;;;2.50;;
16667;SDS011;8447;52.630;4.734;2023-02-18T14:39:23;12.73;;;2.23;;
16667;SDS011;8447;52.630;4.734;2023-02-18T14:41:54;15.77;;;2.17;;
16667;SDS011;8447;52.630;4.734;2023-02-18T14:44:29;11.73;;;2.33;;
16667;SDS011;8447;52.630;4.734;2023-02-18T14:47:03;12.00;;;2.53;;
16667;SDS011;8447;52.630;4.734;2023-02-18T14:49:35;14.87;;;2.40;;
16667;SDS011;8447;52.630;4.734;2023-02-18T14:52:03;10.70;;;2.37;;
16667;SDS011;8447;52.630;4.734;2023-02-18T14:54:30;11.67;;;2.23;;
16667;SDS011;8447;52.630;4.734;2023-02-18T14:56:58;14.03;;;2.03;;
16667;SDS011;8447;52.630;4.734;2023-02-18T14:59:26;8.90;;;2.00;;
16667;SDS011;8447;52.630;4.734;2023-02-18T15:01:54;13.47;;;2.53;;
16667;SDS011;8447;52.630;4.734;2023-02-18T15:04:21;9.80;;;2.47;;
16667;SDS011;8447;52.630;4.734;2023-02-18T15:06:58;10.07;;;1.97;;
16667;SDS011;8447;52.630;4.734;2023-02-18T15:09:25;17.23;;;2.20;;
16667;SDS011;8447;52.630;4.734;2023-02-18T15:11:54;14.73;;;2.17;;
16667;SDS011;8447;52.630;4.734;2023-02-18T15:14:22;12.30;;;2.50;;
16667;SDS011;8447;52.630;4.734;2023-02-18T15:16:49;14.93;;;3.13;;
16667;SDS011;8447;52.630;4.734;2023-02-18T15:19:17;10.30;;;1.87;;
16667;SDS011;8447;52.630;4.734;2023-02-18T15:21:45;6.30;;;2.07;;